sensor_id;sensor_type;location;lat;lon;timestamp;P1;durP1;ratioP1;P2;durP2;ratioP2
56893;SDS011;43392;50.078;13.704;2023-04-25T00:00:34;7.28;;;3.78;;
56893;SDS011;43392;50.078;13.704;2023-04-25T00:03:00;6.20;;;3.60;;
56893;SDS011;43392;50.078;13.704;2023-04-25T00:05:27;10.70;;;4.60;;
56893;SDS011;43392;50.078;13.704;2023-04-25T00:07:54;8.55;;;4.20;;
56893;SDS011;43392;50.078;13.704;2023-04-25T00:10:22;10.73;;;5.35;;
56893;SDS011;43392;50.078;13.704;2023-04-25T00:12:49;13.57;;;6.60;;
56893;SDS011;43392;50.078;13.704;2023-04-25T00:15:16;10.95;;;5.75;;
56893;SDS011;43392;50.078;13.704;2023-04-25T00:17:43;9.30;;;4.97;;
56893;SDS011;43392;50.078;13.704;2023-04-25T00:20:11;7.82;;;4.15;;
56893;SDS011;43392;50.078;13.704;2023-04-25T00:22:38;7.43;;;4.10;;
56893;SDS011;43392;50.078;13.704;2023-04-25T00:25:04;8.32;;;4.43;;
56893;SDS011;43392;50.078;13.704;2023-04-25T00:27:33;9.05;;;4.57;;
56893;SDS011;43392;50.078;13.704;2023-04-25T00:30:00;8.73;;;4.38;;
56893;SDS011;43392;50.078;13.704;2023-04-25T00:32:26;9.25;;;4.50;;
56893;SDS011;43392;50.078;13.704;2023-04-25T00:34:53;9.10;;;4.80;;
56893;SDS011;43392;50.078;13.704;2023-04-25T00:37:20;9.15;;;4.78;;
56893;SDS011;43392;50.078;13.704;2023-04-25T00:39:47;10.38;;;4.60;;
56893;SDS011;43392;50.078;13.704;2023-04-25T00:42:14;8.23;;;4.75;;
56893;SDS011;43392;50.078;13.704;2023-04-25T00:44:42;10.55;;;4.63;;
56893;SDS011;43392;50.078;13.704;2023-04-25T00:47:11;9.50;;;4.82;;
56893;SDS011;43392;50.078;13.704;2023-04-25T00:49:37;10.85;;;5.40;;
56893;SDS011;43392;50.078;13.704;2023-04-25T00:52:04;14.65;;;6.75;;
56893;SDS011;43392;50.078;13.704;2023-04-25T00:54:31;13.38;;;6.30;;
56893;SDS011;43392;50.078;13.704;2023-04-25T00:56:58;12.80;;;6.57;;
56893;SDS011;43392;50.078;13.704;2023-04-25T00:59:25;10.15;;;5.88;;
56893;SDS011;43392;50.078;13.704;2023-04-25T01:01:56;8.85;;;4.97;;
56893;SDS011;43392;50.078;13.704;2023-04-25T01:04:23;9.68;;;5.25;;
56893;SDS011;43392;50.078;13.704;2023-04-25T01:06:49;9.70;;;5.82;;
56893;SDS011;43392;50.078;13.704;2023-04-25T01:09:16;9.38;;;5.47;;
56893;SDS011;43392;50.078;13.704;2023-04-25T01:11:42;10.18;;;5.97;;
56893;SDS011;43392;50.078;13.704;2023-04-25T01:14:09;9.80;;;5.85;;
56893;SDS011;43392;50.078;13.704;2023-04-25T01:16:36;9.43;;;5.47;;
56893;SDS011;43392;50.078;13.704;2023-04-25T01:19:05;9.63;;;5.40;;
56893;SDS011;43392;50.078;13.704;2023-04-25T01:21:38;10.88;;;5.93;;
56893;SDS011;43392;50.078;13.704;2023-04-25T01:24:05;10.13;;;5.55;;
56893;SDS011;43392;50.078;13.704;2023-04-25T01:26:32;11.27;;;5.85;;
56893;SDS011;43392;50.078;13.704;2023-04-25T01:28:59;11.10;;;6.25;;
56893;SDS011;43392;50.078;13.704;2023-04-25T01:31:27;9.70;;;5.50;;
56893;SDS011;43392;50.078;13.704;2023-04-25T01:33:54;10.10;;;5.07;;
56893;SDS011;43392;50.078;13.704;2023-04-25T01:36:20;14.52;;;6.13;;
56893;SDS011;43392;50.078;13.704;2023-04-25T01:38:49;9.35;;;5.78;;
56893;SDS011;43392;50.078;13.704;2023-04-25T01:41:16;10.68;;;6.05;;
56893;SDS011;43392;50.078;13.704;2023-04-25T01:43:43;11.05;;;5.68;;
56893;SDS011;43392;50.078;13.704;2023-04-25T01:46:10;10.95;;;6.10;;
56893;SDS011;43392;50.078;13.704;2023-04-25T01:48:37;9.93;;;6.00;;
56893;SDS011;43392;50.078;13.704;2023-04-25T01:51:04;11.07;;;6.03;;
56893;SDS011;43392;50.078;13.704;2023-04-25T01:53:30;9.50;;;5.43;;
56893;SDS011;43392;50.078;13.704;2023-04-25T01:55:58;12.02;;;5.70;;
56893;SDS011;43392;50.078;13.704;2023-04-25T01:58:25;9.63;;;5.28;;
56893;SDS011;43392;50.078;13.704;2023-04-25T02:00:52;11.13;;;5.75;;
56893;SDS011;43392;50.078;13.704;2023-04-25T02:03:18;9.18;;;5.43;;
56893;SDS011;43392;50.078;13.704;2023-04-25T02:05:45;10.18;;;5.72;;
56893;SDS011;43392;50.078;13.704;2023-04-25T02:08:11;10.30;;;5.72;;
56893;SDS011;43392;50.078;13.704;2023-04-25T02:10:38;9.75;;;5.80;;
56893;SDS011;43392;50.078;13.704;2023-04-25T02:13:06;10.18;;;5.97;;
56893;SDS011;43392;50.078;13.704;2023-04-25T02:15:33;9.93;;;5.68;;
56893;SDS011;43392;50.078;13.704;2023-04-25T02:17:59;11.18;;;5.88;;
56893;SDS011;43392;50.078;13.704;2023-04-25T02:20:27;10.90;;;5.90;;
56893;SDS011;43392;50.078;13.704;2023-04-25T02:22:55;13.55;;;6.22;;
56893;SDS011;43392;50.078;13.704;2023-04-25T02:25:22;9.98;;;6.15;;
56893;SDS011;43392;50.078;13.704;2023-04-25T02:27:49;9.30;;;5.45;;
56893;SDS011;43392;50.078;13.704;2023-04-25T02:30:17;12.98;;;6.95;;
56893;SDS011;43392;50.078;13.704;2023-04-25T02:32:44;10.07;;;5.88;;
56893;SDS011;43392;50.078;13.704;2023-04-25T02:35:11;11.57;;;6.22;;
56893;SDS011;43392;50.078;13.704;2023-04-25T02:37:38;10.65;;;5.85;;
56893;SDS011;43392;50.078;13.704;2023-04-25T02:40:06;12.07;;;6.68;;
56893;SDS011;43392;50.078;13.704;2023-04-25T02:42:33;10.57;;;6.05;;
56893;SDS011;43392;50.078;13.704;2023-04-25T02:45:00;10.95;;;6.13;;
56893;SDS011;43392;50.078;13.704;2023-04-25T02:47:28;11.00;;;5.95;;
56893;SDS011;43392;50.078;13.704;2023-04-25T02:49:54;9.75;;;6.05;;
56893;SDS011;43392;50.078;13.704;2023-04-25T02:52:21;10.13;;;6.20;;
56893;SDS011;43392;50.078;13.704;2023-04-25T02:54:48;10.73;;;6.07;;
56893;SDS011;43392;50.078;13.704;2023-04-25T02:57:14;10.52;;;6.45;;
56893;SDS011;43392;50.078;13.704;2023-04-25T02:59:41;9.77;;;5.88;;
56893;SDS011;43392;50.078;13.704;2023-04-25T03:02:07;11.48;;;6.85;;
56893;SDS011;43392;50.078;13.704;2023-04-25T03:04:35;11.38;;;6.38;;
56893;SDS011;43392;50.078;13.704;2023-04-25T03:07:02;10.65;;;6.45;;
56893;SDS011;43392;50.078;13.704;2023-04-25T03:09:29;12.85;;;6.80;;
56893;SDS011;43392;50.078;13.704;2023-04-25T03:11:55;14.00;;;7.55;;
56893;SDS011;43392;50.078;13.704;2023-04-25T03:14:22;10.88;;;6.25;;
56893;SDS011;43392;50.078;13.704;2023-04-25T03:16:48;10.93;;;6.63;;
56893;SDS011;43392;50.078;13.704;2023-04-25T03:19:15;11.20;;;6.43;;
56893;SDS011;43392;50.078;13.704;2023-04-25T03:21:43;10.77;;;6.32;;
56893;SDS011;43392;50.078;13.704;2023-04-25T03:24:10;14.57;;;7.78;;
56893;SDS011;43392;50.078;13.704;2023-04-25T03:26:37;11.57;;;7.40;;
56893;SDS011;43392;50.078;13.704;2023-04-25T03:29:04;12.90;;;7.13;;
56893;SDS011;43392;50.078;13.704;2023-04-25T03:31:30;16.92;;;8.30;;
56893;SDS011;43392;50.078;13.704;2023-04-25T03:33:57;15.68;;;7.45;;
56893;SDS011;43392;50.078;13.704;2023-04-25T03:36:24;11.18;;;6.72;;
56893;SDS011;43392;50.078;13.704;2023-04-25T03:38:52;11.88;;;6.68;;
56893;SDS011;43392;50.078;13.704;2023-04-25T03:41:18;14.43;;;7.05;;
56893;SDS011;43392;50.078;13.704;2023-04-25T03:43:45;10.73;;;6.65;;
56893;SDS011;43392;50.078;13.704;2023-04-25T03:46:11;16.15;;;8.32;;
56893;SDS011;43392;50.078;13.704;2023-04-25T03:48:38;13.98;;;8.95;;
56893;SDS011;43392;50.078;13.704;2023-04-25T03:51:04;13.45;;;7.65;;
56893;SDS011;43392;50.078;13.704;2023-04-25T03:53:31;17.08;;;9.05;;
56893;SDS011;43392;50.078;13.704;2023-04-25T03:55:59;18.23;;;11.35;;
56893;SDS011;43392;50.078;13.704;2023-04-25T03:58:25;15.82;;;8.48;;
56893;SDS011;43392;50.078;13.704;2023-04-25T04:00:52;12.15;;;7.68;;
56893;SDS011;43392;50.078;13.704;2023-04-25T04:03:19;11.45;;;6.88;;
56893;SDS011;43392;50.078;13.704;2023-04-25T04:05:45;11.60;;;7.25;;
56893;SDS011;43392;50.078;13.704;2023-04-25T04:08:12;11.18;;;6.75;;
56893;SDS011;43392;50.078;13.704;2023-04-25T04:10:39;11.60;;;7.47;;
56893;SDS011;43392;50.078;13.704;2023-04-25T04:13:07;11.60;;;6.57;;
56893;SDS011;43392;50.078;13.704;2023-04-25T04:15:33;14.63;;;7.57;;
56893;SDS011;43392;50.078;13.704;2023-04-25T04:18:00;11.07;;;7.07;;
56893;SDS011;43392;50.078;13.704;2023-04-25T04:20:28;13.05;;;6.72;;
56893;SDS011;43392;50.078;13.704;2023-04-25T04:22:55;11.30;;;7.10;;
56893;SDS011;43392;50.078;13.704;2023-04-25T04:25:22;12.82;;;7.40;;
56893;SDS011;43392;50.078;13.704;2023-04-25T04:27:49;11.77;;;7.53;;
56893;SDS011;43392;50.078;13.704;2023-04-25T04:30:20;12.55;;;7.45;;
56893;SDS011;43392;50.078;13.704;2023-04-25T04:32:49;12.82;;;7.35;;
56893;SDS011;43392;50.078;13.704;2023-04-25T04:35:15;13.43;;;7.80;;
56893;SDS011;43392;50.078;13.704;2023-04-25T04:37:42;13.60;;;6.95;;
56893;SDS011;43392;50.078;13.704;2023-04-25T04:40:10;11.85;;;7.20;;
56893;SDS011;43392;50.078;13.704;2023-04-25T04:42:40;10.88;;;6.90;;
56893;SDS011;43392;50.078;13.704;2023-04-25T04:45:07;12.18;;;6.95;;
56893;SDS011;43392;50.078;13.704;2023-04-25T04:47:36;12.10;;;7.57;;
56893;SDS011;43392;50.078;13.704;2023-04-25T04:50:04;14.52;;;8.45;;
56893;SDS011;43392;50.078;13.704;2023-04-25T04:52:33;13.80;;;8.23;;
56893;SDS011;43392;50.078;13.704;2023-04-25T04:55:00;14.75;;;7.93;;
56893;SDS011;43392;50.078;13.704;2023-04-25T04:57:27;11.55;;;7.50;;
56893;SDS011;43392;50.078;13.704;2023-04-25T04:59:54;12.68;;;7.80;;
56893;SDS011;43392;50.078;13.704;2023-04-25T05:02:20;12.57;;;6.60;;
56893;SDS011;43392;50.078;13.704;2023-04-25T05:04:48;13.27;;;6.90;;
56893;SDS011;43392;50.078;13.704;2023-04-25T05:07:16;12.13;;;7.10;;
56893;SDS011;43392;50.078;13.704;2023-04-25T05:09:43;10.48;;;6.70;;
56893;SDS011;43392;50.078;13.704;2023-04-25T05:12:09;11.63;;;7.38;;
56893;SDS011;43392;50.078;13.704;2023-04-25T05:14:36;11.23;;;6.45;;
56893;SDS011;43392;50.078;13.704;2023-04-25T05:17:03;13.13;;;7.18;;
56893;SDS011;43392;50.078;13.704;2023-04-25T05:19:33;11.43;;;7.38;;
56893;SDS011;43392;50.078;13.704;2023-04-25T05:22:01;11.52;;;6.82;;
56893;SDS011;43392;50.078;13.704;2023-04-25T05:24:28;12.38;;;7.53;;
56893;SDS011;43392;50.078;13.704;2023-04-25T05:26:54;9.43;;;6.10;;
56893;SDS011;43392;50.078;13.704;2023-04-25T05:29:21;12.07;;;7.13;;
56893;SDS011;43392;50.078;13.704;2023-04-25T05:31:47;10.88;;;7.10;;
56893;SDS011;43392;50.078;13.704;2023-04-25T05:34:14;14.60;;;7.15;;
56893;SDS011;43392;50.078;13.704;2023-04-25T05:36:41;10.75;;;7.25;;
56893;SDS011;43392;50.078;13.704;2023-04-25T05:39:09;12.20;;;7.30;;
56893;SDS011;43392;50.078;13.704;2023-04-25T05:41:36;11.93;;;7.15;;
56893;SDS011;43392;50.078;13.704;2023-04-25T05:44:02;11.68;;;7.43;;
56893;SDS011;43392;50.078;13.704;2023-04-25T05:46:29;10.05;;;6.80;;
56893;SDS011;43392;50.078;13.704;2023-04-25T05:48:56;12.73;;;7.90;;
56893;SDS011;43392;50.078;13.704;2023-04-25T05:51:23;11.65;;;7.68;;
56893;SDS011;43392;50.078;13.704;2023-04-25T05:53:49;12.38;;;7.00;;
56893;SDS011;43392;50.078;13.704;2023-04-25T05:56:17;11.98;;;7.60;;
56893;SDS011;43392;50.078;13.704;2023-04-25T05:58:44;12.40;;;8.05;;
56893;SDS011;43392;50.078;13.704;2023-04-25T06:01:11;14.02;;;8.07;;
56893;SDS011;43392;50.078;13.704;2023-04-25T06:03:38;13.35;;;7.68;;
56893;SDS011;43392;50.078;13.704;2023-04-25T06:06:07;12.90;;;7.75;;
56893;SDS011;43392;50.078;13.704;2023-04-25T06:08:34;14.07;;;8.60;;
56893;SDS011;43392;50.078;13.704;2023-04-25T06:11:01;15.00;;;9.45;;
56893;SDS011;43392;50.078;13.704;2023-04-25T06:13:28;15.02;;;8.25;;
56893;SDS011;43392;50.078;13.704;2023-04-25T06:15:55;15.98;;;8.43;;
56893;SDS011;43392;50.078;13.704;2023-04-25T06:18:22;12.63;;;7.88;;
56893;SDS011;43392;50.078;13.704;2023-04-25T06:20:48;12.45;;;7.38;;
56893;SDS011;43392;50.078;13.704;2023-04-25T06:23:15;10.27;;;6.45;;
56893;SDS011;43392;50.078;13.704;2023-04-25T06:25:41;13.02;;;7.25;;
56893;SDS011;43392;50.078;13.704;2023-04-25T06:28:08;12.15;;;7.00;;
56893;SDS011;43392;50.078;13.704;2023-04-25T06:30:36;10.57;;;7.22;;
56893;SDS011;43392;50.078;13.704;2023-04-25T06:33:02;11.90;;;8.32;;
56893;SDS011;43392;50.078;13.704;2023-04-25T06:35:29;15.60;;;8.73;;
56893;SDS011;43392;50.078;13.704;2023-04-25T06:37:56;12.23;;;7.65;;
56893;SDS011;43392;50.078;13.704;2023-04-25T06:40:22;13.82;;;8.43;;
56893;SDS011;43392;50.078;13.704;2023-04-25T06:42:49;11.48;;;7.22;;
56893;SDS011;43392;50.078;13.704;2023-04-25T06:45:16;12.30;;;7.47;;
56893;SDS011;43392;50.078;13.704;2023-04-25T06:47:44;12.20;;;7.30;;
56893;SDS011;43392;50.078;13.704;2023-04-25T06:50:10;5.53;;;3.13;;
56893;SDS011;43392;50.078;13.704;2023-04-25T06:52:37;6.68;;;2.92;;
56893;SDS011;43392;50.078;13.704;2023-04-25T06:55:04;6.15;;;3.53;;
56893;SDS011;43392;50.078;13.704;2023-04-25T06:57:31;13.90;;;4.18;;
56893;SDS011;43392;50.078;13.704;2023-04-25T06:59:57;12.38;;;3.63;;
56893;SDS011;43392;50.078;13.704;2023-04-25T07:02:24;8.32;;;5.18;;
56893;SDS011;43392;50.078;13.704;2023-04-25T07:04:52;10.88;;;6.25;;
56893;SDS011;43392;50.078;13.704;2023-04-25T07:07:21;8.80;;;5.75;;
56893;SDS011;43392;50.078;13.704;2023-04-25T07:09:47;10.77;;;7.43;;
56893;SDS011;43392;50.078;13.704;2023-04-25T07:12:14;11.13;;;6.97;;
56893;SDS011;43392;50.078;13.704;2023-04-25T07:14:40;11.25;;;7.70;;
56893;SDS011;43392;50.078;13.704;2023-04-25T07:17:07;11.85;;;7.10;;
56893;SDS011;43392;50.078;13.704;2023-04-25T07:19:33;14.98;;;8.68;;
56893;SDS011;43392;50.078;13.704;2023-04-25T07:22:03;11.10;;;7.60;;
56893;SDS011;43392;50.078;13.704;2023-04-25T07:24:29;11.88;;;6.95;;
56893;SDS011;43392;50.078;13.704;2023-04-25T07:26:56;12.13;;;7.35;;
56893;SDS011;43392;50.078;13.704;2023-04-25T07:29:22;15.80;;;9.32;;
56893;SDS011;43392;50.078;13.704;2023-04-25T07:31:49;23.60;;;12.93;;
56893;SDS011;43392;50.078;13.704;2023-04-25T07:34:16;22.55;;;12.90;;
56893;SDS011;43392;50.078;13.704;2023-04-25T07:36:43;26.60;;;12.57;;
56893;SDS011;43392;50.078;13.704;2023-04-25T07:39:11;44.03;;;16.70;;
56893;SDS011;43392;50.078;13.704;2023-04-25T07:41:37;17.15;;;8.25;;
56893;SDS011;43392;50.078;13.704;2023-04-25T07:44:04;25.33;;;11.07;;
56893;SDS011;43392;50.078;13.704;2023-04-25T07:46:31;22.65;;;10.25;;
56893;SDS011;43392;50.078;13.704;2023-04-25T07:48:58;21.27;;;10.73;;
56893;SDS011;43392;50.078;13.704;2023-04-25T07:51:24;16.80;;;8.50;;
56893;SDS011;43392;50.078;13.704;2023-04-25T07:53:51;18.50;;;8.82;;
56893;SDS011;43392;50.078;13.704;2023-04-25T07:56:19;16.42;;;7.97;;
56893;SDS011;43392;50.078;13.704;2023-04-25T07:58:45;25.10;;;11.15;;
56893;SDS011;43392;50.078;13.704;2023-04-25T08:01:12;19.38;;;10.35;;
56893;SDS011;43392;50.078;13.704;2023-04-25T08:03:39;18.60;;;9.55;;
56893;SDS011;43392;50.078;13.704;2023-04-25T08:06:05;18.35;;;10.23;;
56893;SDS011;43392;50.078;13.704;2023-04-25T08:08:32;14.15;;;8.68;;
56893;SDS011;43392;50.078;13.704;2023-04-25T08:10:58;14.45;;;8.25;;
56893;SDS011;43392;50.078;13.704;2023-04-25T08:13:26;13.15;;;7.63;;
56893;SDS011;43392;50.078;13.704;2023-04-25T08:15:53;12.98;;;6.80;;
56893;SDS011;43392;50.078;13.704;2023-04-25T08:18:20;23.08;;;11.68;;
56893;SDS011;43392;50.078;13.704;2023-04-25T08:20:46;12.32;;;7.07;;
56893;SDS011;43392;50.078;13.704;2023-04-25T08:23:13;9.93;;;6.05;;
56893;SDS011;43392;50.078;13.704;2023-04-25T08:25:39;9.30;;;5.97;;
56893;SDS011;43392;50.078;13.704;2023-04-25T08:28:06;11.70;;;6.00;;
56893;SDS011;43392;50.078;13.704;2023-04-25T08:30:34;10.50;;;6.10;;
56893;SDS011;43392;50.078;13.704;2023-04-25T08:33:01;6.60;;;3.40;;
56893;SDS011;43392;50.078;13.704;2023-04-25T08:35:27;14.32;;;5.18;;
56893;SDS011;43392;50.078;13.704;2023-04-25T08:37:54;6.07;;;3.47;;
56893;SDS011;43392;50.078;13.704;2023-04-25T08:40:22;6.43;;;2.78;;
56893;SDS011;43392;50.078;13.704;2023-04-25T08:42:51;5.05;;;2.15;;
56893;SDS011;43392;50.078;13.704;2023-04-25T08:45:19;4.28;;;2.30;;
56893;SDS011;43392;50.078;13.704;2023-04-25T08:47:48;5.63;;;2.53;;
56893;SDS011;43392;50.078;13.704;2023-04-25T08:50:18;2.88;;;2.03;;
56893;SDS011;43392;50.078;13.704;2023-04-25T08:52:47;4.05;;;2.10;;
56893;SDS011;43392;50.078;13.704;2023-04-25T08:55:17;2.95;;;1.90;;
56893;SDS011;43392;50.078;13.704;2023-04-25T08:57:45;3.92;;;2.38;;
56893;SDS011;43392;50.078;13.704;2023-04-25T09:00:12;7.55;;;3.67;;
56893;SDS011;43392;50.078;13.704;2023-04-25T09:02:39;7.65;;;3.88;;
56893;SDS011;43392;50.078;13.704;2023-04-25T09:05:09;10.23;;;4.28;;
56893;SDS011;43392;50.078;13.704;2023-04-25T09:07:38;8.30;;;4.65;;
56893;SDS011;43392;50.078;13.704;2023-04-25T09:10:05;7.63;;;4.55;;
56893;SDS011;43392;50.078;13.704;2023-04-25T09:12:32;10.55;;;5.72;;
56893;SDS011;43392;50.078;13.704;2023-04-25T09:15:03;9.68;;;4.78;;
56893;SDS011;43392;50.078;13.704;2023-04-25T09:17:30;13.85;;;6.22;;
56893;SDS011;43392;50.078;13.704;2023-04-25T09:20:04;23.70;;;10.57;;
56893;SDS011;43392;50.078;13.704;2023-04-25T09:22:33;19.00;;;8.85;;
56893;SDS011;43392;50.078;13.704;2023-04-25T09:25:02;15.63;;;7.50;;
56893;SDS011;43392;50.078;13.704;2023-04-25T09:27:31;6.10;;;2.92;;
56893;SDS011;43392;50.078;13.704;2023-04-25T09:29:59;8.00;;;3.40;;
56893;SDS011;43392;50.078;13.704;2023-04-25T09:32:26;8.35;;;3.60;;
56893;SDS011;43392;50.078;13.704;2023-04-25T09:34:53;7.25;;;2.63;;
56893;SDS011;43392;50.078;13.704;2023-04-25T09:37:21;8.68;;;3.90;;
56893;SDS011;43392;50.078;13.704;2023-04-25T09:39:51;10.40;;;5.55;;
56893;SDS011;43392;50.078;13.704;2023-04-25T09:42:21;10.55;;;5.05;;
56893;SDS011;43392;50.078;13.704;2023-04-25T09:47:17;5.30;;;2.90;;
56893;SDS011;43392;50.078;13.704;2023-04-25T09:49:46;4.50;;;2.50;;
56893;SDS011;43392;50.078;13.704;2023-04-25T09:52:13;6.13;;;2.28;;
56893;SDS011;43392;50.078;13.704;2023-04-25T09:54:41;4.57;;;2.20;;
56893;SDS011;43392;50.078;13.704;2023-04-25T09:57:11;4.25;;;2.20;;
56893;SDS011;43392;50.078;13.704;2023-04-25T09:59:42;3.75;;;1.90;;
56893;SDS011;43392;50.078;13.704;2023-04-25T10:02:11;5.28;;;2.22;;
56893;SDS011;43392;50.078;13.704;2023-04-25T10:04:39;4.15;;;2.53;;
56893;SDS011;43392;50.078;13.704;2023-04-25T10:07:07;5.68;;;2.40;;
56893;SDS011;43392;50.078;13.704;2023-04-25T10:09:36;2.80;;;1.50;;
56893;SDS011;43392;50.078;13.704;2023-04-25T10:14:34;2.67;;;1.70;;
56893;SDS011;43392;50.078;13.704;2023-04-25T10:17:01;3.58;;;1.80;;
56893;SDS011;43392;50.078;13.704;2023-04-25T10:19:28;4.47;;;2.10;;
56893;SDS011;43392;50.078;13.704;2023-04-25T10:21:56;4.90;;;2.47;;
56893;SDS011;43392;50.078;13.704;2023-04-25T10:24:28;3.38;;;2.20;;
56893;SDS011;43392;50.078;13.704;2023-04-25T10:26:55;3.28;;;2.10;;
56893;SDS011;43392;50.078;13.704;2023-04-25T10:29:23;7.03;;;2.58;;
56893;SDS011;43392;50.078;13.704;2023-04-25T10:31:52;5.65;;;2.72;;
56893;SDS011;43392;50.078;13.704;2023-04-25T10:34:19;5.32;;;2.60;;
56893;SDS011;43392;50.078;13.704;2023-04-25T10:36:51;13.50;;;5.22;;
56893;SDS011;43392;50.078;13.704;2023-04-25T10:39:22;5.93;;;2.70;;
56893;SDS011;43392;50.078;13.704;2023-04-25T10:41:53;11.13;;;3.33;;
56893;SDS011;43392;50.078;13.704;2023-04-25T10:44:22;7.80;;;3.85;;
56893;SDS011;43392;50.078;13.704;2023-04-25T10:46:48;6.20;;;3.05;;
56893;SDS011;43392;50.078;13.704;2023-04-25T10:49:29;8.75;;;3.92;;
56893;SDS011;43392;50.078;13.704;2023-04-25T10:52:15;7.90;;;3.47;;
56893;SDS011;43392;50.078;13.704;2023-04-25T10:54:47;7.32;;;3.67;;
56893;SDS011;43392;50.078;13.704;2023-04-25T11:02:52;6.03;;;3.05;;
56893;SDS011;43392;50.078;13.704;2023-04-25T11:05:27;6.40;;;3.20;;
56893;SDS011;43392;50.078;13.704;2023-04-25T11:07:57;6.60;;;3.50;;
56893;SDS011;43392;50.078;13.704;2023-04-25T11:10:25;7.22;;;3.65;;
56893;SDS011;43392;50.078;13.704;2023-04-25T11:12:52;6.70;;;3.28;;
56893;SDS011;43392;50.078;13.704;2023-04-25T11:15:19;7.80;;;3.10;;
56893;SDS011;43392;50.078;13.704;2023-04-25T11:17:45;7.65;;;2.65;;
56893;SDS011;43392;50.078;13.704;2023-04-25T11:20:12;11.35;;;4.35;;
56893;SDS011;43392;50.078;13.704;2023-04-25T11:22:41;4.22;;;2.22;;
56893;SDS011;43392;50.078;13.704;2023-04-25T11:25:11;7.70;;;3.60;;
56893;SDS011;43392;50.078;13.704;2023-04-25T11:27:49;8.10;;;3.10;;
56893;SDS011;43392;50.078;13.704;2023-04-25T11:30:16;6.95;;;2.80;;
56893;SDS011;43392;50.078;13.704;2023-04-25T11:32:43;6.38;;;2.60;;
56893;SDS011;43392;50.078;13.704;2023-04-25T11:35:10;6.32;;;3.03;;
56893;SDS011;43392;50.078;13.704;2023-04-25T11:37:38;10.02;;;3.60;;
56893;SDS011;43392;50.078;13.704;2023-04-25T11:40:07;11.20;;;4.45;;
56893;SDS011;43392;50.078;13.704;2023-04-25T11:45:03;6.57;;;2.92;;
56893;SDS011;43392;50.078;13.704;2023-04-25T11:47:32;7.97;;;3.17;;
56893;SDS011;43392;50.078;13.704;2023-04-25T11:49:59;8.43;;;3.70;;
56893;SDS011;43392;50.078;13.704;2023-04-25T11:52:35;8.90;;;3.92;;
56893;SDS011;43392;50.078;13.704;2023-04-25T11:55:03;7.38;;;3.72;;
56893;SDS011;43392;50.078;13.704;2023-04-25T11:57:33;7.80;;;4.25;;
56893;SDS011;43392;50.078;13.704;2023-04-25T12:00:07;7.10;;;3.60;;
56893;SDS011;43392;50.078;13.704;2023-04-25T12:02:41;9.00;;;3.97;;
56893;SDS011;43392;50.078;13.704;2023-04-25T12:05:09;5.75;;;2.30;;
56893;SDS011;43392;50.078;13.704;2023-04-25T12:07:36;9.55;;;3.17;;
56893;SDS011;43392;50.078;13.704;2023-04-25T12:10:04;13.13;;;4.10;;
56893;SDS011;43392;50.078;13.704;2023-04-25T12:12:33;5.43;;;2.35;;
56893;SDS011;43392;50.078;13.704;2023-04-25T12:15:10;7.00;;;2.80;;
56893;SDS011;43392;50.078;13.704;2023-04-25T12:17:40;5.78;;;2.97;;
56893;SDS011;43392;50.078;13.704;2023-04-25T12:20:08;5.97;;;3.05;;
56893;SDS011;43392;50.078;13.704;2023-04-25T12:22:36;7.30;;;3.38;;
56893;SDS011;43392;50.078;13.704;2023-04-25T12:25:03;7.70;;;3.63;;
56893;SDS011;43392;50.078;13.704;2023-04-25T12:27:31;8.85;;;3.45;;
56893;SDS011;43392;50.078;13.704;2023-04-25T12:30:00;9.07;;;3.42;;
56893;SDS011;43392;50.078;13.704;2023-04-25T12:32:26;8.18;;;3.45;;
56893;SDS011;43392;50.078;13.704;2023-04-25T12:34:53;6.40;;;3.40;;
56893;SDS011;43392;50.078;13.704;2023-04-25T12:37:20;6.57;;;3.28;;
56893;SDS011;43392;50.078;13.704;2023-04-25T12:39:47;6.15;;;3.60;;
56893;SDS011;43392;50.078;13.704;2023-04-25T12:42:13;9.52;;;3.72;;
56893;SDS011;43392;50.078;13.704;2023-04-25T12:44:40;7.80;;;3.00;;
56893;SDS011;43392;50.078;13.704;2023-04-25T12:47:08;8.68;;;3.35;;
56893;SDS011;43392;50.078;13.704;2023-04-25T12:49:34;8.07;;;3.22;;
56893;SDS011;43392;50.078;13.704;2023-04-25T12:52:01;9.75;;;4.30;;
56893;SDS011;43392;50.078;13.704;2023-04-25T12:54:28;7.70;;;3.95;;
56893;SDS011;43392;50.078;13.704;2023-04-25T12:56:54;9.90;;;4.05;;
56893;SDS011;43392;50.078;13.704;2023-04-25T12:59:21;8.90;;;3.50;;
56893;SDS011;43392;50.078;13.704;2023-04-25T13:01:48;8.45;;;4.15;;
56893;SDS011;43392;50.078;13.704;2023-04-25T13:04:16;7.05;;;3.58;;
56893;SDS011;43392;50.078;13.704;2023-04-25T13:06:42;8.07;;;3.55;;
56893;SDS011;43392;50.078;13.704;2023-04-25T13:09:09;7.70;;;3.22;;
56893;SDS011;43392;50.078;13.704;2023-04-25T13:11:37;8.27;;;3.42;;
56893;SDS011;43392;50.078;13.704;2023-04-25T13:14:04;6.82;;;2.90;;
56893;SDS011;43392;50.078;13.704;2023-04-25T13:16:31;4.63;;;2.90;;
56893;SDS011;43392;50.078;13.704;2023-04-25T13:18:58;6.13;;;3.38;;
56893;SDS011;43392;50.078;13.704;2023-04-25T13:21:26;7.85;;;3.42;;
56893;SDS011;43392;50.078;13.704;2023-04-25T13:23:52;7.47;;;3.10;;
56893;SDS011;43392;50.078;13.704;2023-04-25T13:26:19;8.18;;;3.08;;
56893;SDS011;43392;50.078;13.704;2023-04-25T13:28:46;4.13;;;2.38;;
56893;SDS011;43392;50.078;13.704;2023-04-25T13:31:12;5.13;;;2.30;;
56893;SDS011;43392;50.078;13.704;2023-04-25T13:33:39;5.30;;;2.47;;
56893;SDS011;43392;50.078;13.704;2023-04-25T13:36:05;7.15;;;2.10;;
56893;SDS011;43392;50.078;13.704;2023-04-25T13:38:33;3.10;;;1.80;;
56893;SDS011;43392;50.078;13.704;2023-04-25T13:41:00;5.20;;;1.80;;
56893;SDS011;43392;50.078;13.704;2023-04-25T13:43:27;2.70;;;1.60;;
56893;SDS011;43392;50.078;13.704;2023-04-25T13:45:53;3.80;;;1.73;;
56893;SDS011;43392;50.078;13.704;2023-04-25T13:48:20;3.67;;;1.98;;
56893;SDS011;43392;50.078;13.704;2023-04-25T13:50:47;5.18;;;2.10;;
56893;SDS011;43392;50.078;13.704;2023-04-25T13:53:14;5.07;;;2.10;;
56893;SDS011;43392;50.078;13.704;2023-04-25T13:55:42;5.75;;;2.13;;
56893;SDS011;43392;50.078;13.704;2023-04-25T13:58:08;7.43;;;2.83;;
56893;SDS011;43392;50.078;13.704;2023-04-25T14:00:36;6.57;;;2.70;;
56893;SDS011;43392;50.078;13.704;2023-04-25T14:03:04;5.38;;;2.53;;
56893;SDS011;43392;50.078;13.704;2023-04-25T14:05:32;6.75;;;2.47;;
56893;SDS011;43392;50.078;13.704;2023-04-25T14:08:03;5.88;;;2.90;;
56893;SDS011;43392;50.078;13.704;2023-04-25T14:10:30;5.20;;;2.40;;
56893;SDS011;43392;50.078;13.704;2023-04-25T14:12:58;6.35;;;2.88;;
56893;SDS011;43392;50.078;13.704;2023-04-25T14:15:25;5.60;;;2.58;;
56893;SDS011;43392;50.078;13.704;2023-04-25T14:17:52;5.97;;;3.10;;
56893;SDS011;43392;50.078;13.704;2023-04-25T14:20:19;5.32;;;2.60;;
56893;SDS011;43392;50.078;13.704;2023-04-25T14:22:46;7.82;;;3.40;;
56893;SDS011;43392;50.078;13.704;2023-04-25T14:25:13;4.38;;;2.00;;
56893;SDS011;43392;50.078;13.704;2023-04-25T14:27:39;6.13;;;3.10;;
56893;SDS011;43392;50.078;13.704;2023-04-25T14:30:08;7.53;;;2.95;;
56893;SDS011;43392;50.078;13.704;2023-04-25T14:32:36;7.40;;;2.83;;
56893;SDS011;43392;50.078;13.704;2023-04-25T14:35:04;5.28;;;2.22;;
56893;SDS011;43392;50.078;13.704;2023-04-25T14:37:32;5.25;;;2.53;;
56893;SDS011;43392;50.078;13.704;2023-04-25T14:39:58;6.63;;;2.50;;
56893;SDS011;43392;50.078;13.704;2023-04-25T14:42:25;7.75;;;2.88;;